createdAt,value
2018-07-31T00:01:52.895Z,7.60
2018-07-31T00:04:28.974Z,7.10
2018-07-31T00:07:05.776Z,6.83
2018-07-31T00:09:41.694Z,6.97
2018-07-31T00:12:17.596Z,6.80
2018-07-31T00:14:53.802Z,7.33
2018-07-31T00:17:29.995Z,7.17
2018-07-31T00:20:06.651Z,6.83
2018-07-31T00:22:43.010Z,7.43
2018-07-31T00:25:18.561Z,6.70
2018-07-31T00:27:54.272Z,7.30
2018-07-31T00:30:30.703Z,6.37
2018-07-31T00:33:06.664Z,7.40
2018-07-31T00:35:42.654Z,7.13
2018-07-31T00:38:19.580Z,6.70
2018-07-31T00:40:55.567Z,6.77
2018-07-31T00:43:31.722Z,7.30
2018-07-31T00:46:08.003Z,6.93
2018-07-31T00:48:43.909Z,7.63
2018-07-31T00:51:19.683Z,7.20
2018-07-31T00:53:56.072Z,7.17
2018-07-31T00:56:32.289Z,7.30
2018-07-31T00:59:08.173Z,8.13
2018-07-31T01:01:44.581Z,7.63
2018-07-31T01:04:20.568Z,7.40
2018-07-31T01:06:56.733Z,7.80
2018-07-31T01:09:33.252Z,7.43
2018-07-31T01:12:09.309Z,7.67
2018-07-31T01:14:45.292Z,7.17
2018-07-31T01:17:21.180Z,8.60
2018-07-31T01:19:57.403Z,8.10
2018-07-31T01:22:33.638Z,8.37
2018-07-31T01:25:09.763Z,7.83
2018-07-31T01:27:45.751Z,8.07
2018-07-31T01:30:21.951Z,8.10
2018-07-31T01:32:58.215Z,8.37
2018-07-31T01:35:34.514Z,7.93
2018-07-31T01:38:10.791Z,8.07
2018-07-31T01:40:46.653Z,8.17
2018-07-31T01:43:22.614Z,7.77
2018-07-31T01:45:59.040Z,8.13
2018-07-31T01:48:34.908Z,7.73
2018-07-31T01:51:10.896Z,7.87
2018-07-31T01:53:47.072Z,8.47
2018-07-31T01:56:23.961Z,7.97
2018-07-31T01:59:00.006Z,8.80
2018-07-31T02:01:35.886Z,8.33
2018-07-31T02:04:13.076Z,8.03
2018-07-31T02:06:49.171Z,8.13
2018-07-31T02:09:25.533Z,8.07
2018-07-31T02:12:01.865Z,7.90
2018-07-31T02:14:37.676Z,8.00
2018-07-31T02:17:13.822Z,8.67
2018-07-31T02:19:50.146Z,8.70
2018-07-31T02:22:26.533Z,7.97
2018-07-31T02:25:02.674Z,7.33
2018-07-31T02:27:38.383Z,7.90
2018-07-31T02:30:19.728Z,8.30
2018-07-31T02:32:55.628Z,7.73
2018-07-31T02:35:31.675Z,8.23
2018-07-31T02:38:08.398Z,7.63
2018-07-31T02:40:44.505Z,8.87
2018-07-31T02:43:20.476Z,7.70
2018-07-31T02:45:56.676Z,8.10
2018-07-31T02:48:32.639Z,7.90
2018-07-31T02:51:08.800Z,8.17
2018-07-31T02:53:45.321Z,7.40
2018-07-31T02:56:21.278Z,8.80
2018-07-31T02:58:57.272Z,8.13
2018-07-31T03:01:33.671Z,7.60
2018-07-31T03:04:09.804Z,8.13
2018-07-31T03:06:45.914Z,8.33
2018-07-31T03:09:22.144Z,8.57
2018-07-31T03:11:58.181Z,7.77
2018-07-31T03:14:34.121Z,8.43
2018-07-31T03:17:10.823Z,8.40
2018-07-31T03:19:46.765Z,8.17
2018-07-31T03:22:23.349Z,8.37
2018-07-31T03:24:59.548Z,8.37
2018-07-31T03:27:36.069Z,8.60
2018-07-31T03:30:12.304Z,9.00
2018-07-31T03:32:48.491Z,9.00
2018-07-31T03:35:24.456Z,8.40
2018-07-31T03:38:00.213Z,9.27
2018-07-31T03:40:36.010Z,9.23
2018-07-31T03:43:12.951Z,8.10
2018-07-31T03:45:48.950Z,8.40
2018-07-31T03:48:25.052Z,9.77
2018-07-31T03:51:01.321Z,8.80
2018-07-31T03:53:37.428Z,8.57
2018-07-31T03:56:13.810Z,8.53
2018-07-31T03:58:50.205Z,8.20
2018-07-31T04:01:26.116Z,7.93
2018-07-31T04:04:02.367Z,8.60
2018-07-31T04:06:38.955Z,9.10
2018-07-31T04:09:15.196Z,8.43
2018-07-31T04:11:51.188Z,8.80
2018-07-31T04:14:27.674Z,9.30
2018-07-31T04:17:03.253Z,9.07
2018-07-31T04:19:39.166Z,9.53
2018-07-31T04:22:15.516Z,9.47
2018-07-31T04:24:51.800Z,9.20
2018-07-31T04:27:27.705Z,10.97
2018-07-31T04:30:04.442Z,10.40
2018-07-31T04:32:40.544Z,10.50
2018-07-31T04:35:16.666Z,11.13
2018-07-31T04:37:53.141Z,11.63
2018-07-31T04:40:29.256Z,11.40
2018-07-31T04:43:05.273Z,10.37
2018-07-31T04:45:41.819Z,11.10
2018-07-31T04:48:18.008Z,11.93
2018-07-31T04:50:53.902Z,12.63
2018-07-31T04:53:30.239Z,11.07
2018-07-31T04:56:06.325Z,11.00
2018-07-31T04:58:42.416Z,13.00
2018-07-31T05:01:18.680Z,11.53
2018-07-31T05:03:54.623Z,11.47
2018-07-31T05:06:31.426Z,10.43
2018-07-31T05:09:10.290Z,10.10
2018-07-31T05:11:46.489Z,10.47
2018-07-31T05:14:22.569Z,10.17
2018-07-31T05:16:59.616Z,11.13
2018-07-31T05:19:35.944Z,10.50
2018-07-31T05:22:12.912Z,10.47
2018-07-31T05:24:48.751Z,10.13
2018-07-31T05:27:25.928Z,10.40
2018-07-31T05:30:02.045Z,9.97
2018-07-31T05:32:38.238Z,10.87
2018-07-31T05:35:15.113Z,11.13
2018-07-31T05:37:51.215Z,11.07
2018-07-31T05:40:27.807Z,10.73
2018-07-31T05:43:04.021Z,10.50
2018-07-31T05:45:39.956Z,10.53
2018-07-31T05:48:16.359Z,10.20
2018-07-31T05:50:52.324Z,9.83
2018-07-31T05:53:28.637Z,10.27
2018-07-31T05:56:04.553Z,10.33
2018-07-31T05:58:41.893Z,10.57
2018-07-31T06:01:17.881Z,11.10
2018-07-31T06:03:54.285Z,10.50
2018-07-31T06:06:30.783Z,11.77
2018-07-31T06:09:09.172Z,10.20
2018-07-31T06:11:45.103Z,9.90
2018-07-31T06:14:22.087Z,10.50
2018-07-31T06:16:57.942Z,10.60
2018-07-31T06:19:33.485Z,10.10
2018-07-31T06:22:09.687Z,10.03
2018-07-31T06:24:45.219Z,9.93
2018-07-31T06:27:21.795Z,10.37
2018-07-31T06:29:59.930Z,10.40
2018-07-31T06:32:35.971Z,10.20
2018-07-31T06:35:12.344Z,10.07
2018-07-31T06:37:48.288Z,9.80
2018-07-31T06:40:24.263Z,10.43
2018-07-31T06:43:00.371Z,10.83
2018-07-31T06:45:37.496Z,10.33
2018-07-31T06:48:13.898Z,9.67
2018-07-31T06:50:49.958Z,10.77
2018-07-31T06:53:26.499Z,10.43
2018-07-31T06:56:02.778Z,10.33
2018-07-31T06:58:39.087Z,10.30
2018-07-31T07:01:15.993Z,10.50
2018-07-31T07:03:52.259Z,9.40
2018-07-31T07:06:28.421Z,9.90
2018-07-31T07:09:08.286Z,10.10
2018-07-31T07:11:44.826Z,9.83
2018-07-31T07:14:21.616Z,11.03
2018-07-31T07:16:59.622Z,10.47
2018-07-31T07:19:35.911Z,9.73
2018-07-31T07:22:11.824Z,10.10
2018-07-31T07:24:48.050Z,9.77
2018-07-31T07:27:24.227Z,10.20
2018-07-31T07:30:00.602Z,10.23
2018-07-31T07:32:36.441Z,9.83
2018-07-31T07:35:12.332Z,9.70
2018-07-31T07:37:48.415Z,11.27
2018-07-31T07:40:24.594Z,9.63
2018-07-31T07:43:00.676Z,9.23
2018-07-31T07:45:37.723Z,11.90
2018-07-31T07:48:13.848Z,10.33
2018-07-31T07:50:50.220Z,9.77
2018-07-31T07:53:26.346Z,10.40
2018-07-31T07:56:02.920Z,9.47
2018-07-31T07:58:39.116Z,9.90
2018-07-31T08:01:15.205Z,9.97
2018-07-31T08:03:52.176Z,9.17
2018-07-31T08:06:28.502Z,9.57
2018-07-31T08:09:06.518Z,8.90
2018-07-31T08:11:43.125Z,9.87
2018-07-31T08:14:19.070Z,9.27
2018-07-31T08:16:55.150Z,8.73
2018-07-31T08:19:32.109Z,9.07
2018-07-31T08:22:08.754Z,9.17
2018-07-31T08:24:45.093Z,9.00
2018-07-31T08:27:21.142Z,8.40
2018-07-31T08:29:57.878Z,7.70
2018-07-31T08:32:34.312Z,7.37
2018-07-31T08:35:10.689Z,8.07
2018-07-31T08:37:47.228Z,8.20
2018-07-31T08:40:23.336Z,8.47
2018-07-31T08:42:59.556Z,8.00
2018-07-31T08:45:36.139Z,7.73
2018-07-31T08:48:12.355Z,7.80
2018-07-31T08:50:48.824Z,8.37
2018-07-31T08:53:25.388Z,8.00
2018-07-31T08:56:01.348Z,8.20
2018-07-31T08:58:37.471Z,8.03
2018-07-31T09:01:15.705Z,8.03
2018-07-31T09:03:51.948Z,7.67
2018-07-31T09:06:28.019Z,8.10
2018-07-31T09:09:06.698Z,7.40
2018-07-31T09:11:43.013Z,7.87
2018-07-31T09:14:19.165Z,8.30
2018-07-31T09:16:55.453Z,8.63
2018-07-31T09:19:31.232Z,8.27
2018-07-31T09:22:07.042Z,8.07
2018-07-31T09:24:44.136Z,7.83
2018-07-31T09:27:20.338Z,8.30
2018-07-31T09:29:56.558Z,7.60
2018-07-31T09:32:38.071Z,8.17
2018-07-31T09:35:14.433Z,6.80
2018-07-31T09:37:50.803Z,7.53
2018-07-31T09:40:27.261Z,7.40
2018-07-31T09:43:03.624Z,7.50
2018-07-31T09:45:39.988Z,7.53
2018-07-31T09:48:17.189Z,8.20
2018-07-31T09:50:53.558Z,7.40
2018-07-31T09:53:29.726Z,6.80
2018-07-31T09:56:06.178Z,7.13
2018-07-31T09:58:42.852Z,7.60
2018-07-31T10:01:20.242Z,6.73
2018-07-31T10:03:56.766Z,8.70
2018-07-31T10:06:33.788Z,6.50
2018-07-31T10:09:10.995Z,6.43
2018-07-31T10:11:47.256Z,5.93
2018-07-31T10:14:23.347Z,5.93
2018-07-31T10:17:00.594Z,5.70
2018-07-31T10:19:36.654Z,6.17
2018-07-31T10:22:13.408Z,6.73
2018-07-31T10:24:49.971Z,6.27
2018-07-31T10:27:26.214Z,7.87
2018-07-31T10:30:02.842Z,7.13
2018-07-31T10:32:39.160Z,6.97
2018-07-31T10:35:15.358Z,6.43
2018-07-31T10:37:51.706Z,6.50
2018-07-31T10:40:29.130Z,6.73
2018-07-31T10:43:05.491Z,6.67
2018-07-31T10:45:41.769Z,6.13
2018-07-31T10:48:18.151Z,6.57
2018-07-31T10:50:54.609Z,6.13
2018-07-31T10:53:30.755Z,6.27
2018-07-31T10:56:09.396Z,6.30
2018-07-31T10:58:45.800Z,6.10
2018-07-31T11:01:21.831Z,6.00
2018-07-31T11:03:57.879Z,6.37
2018-07-31T11:06:33.930Z,5.97
2018-07-31T11:09:11.345Z,6.17
2018-07-31T11:11:47.846Z,6.93
2018-07-31T11:14:24.096Z,6.13
2018-07-31T11:17:01.116Z,6.10
2018-07-31T11:19:38.309Z,6.07
2018-07-31T11:22:14.495Z,6.70
2018-07-31T11:24:52.799Z,6.73
2018-07-31T11:27:29.081Z,6.63
2018-07-31T11:30:05.974Z,6.90
2018-07-31T11:32:42.603Z,6.27
2018-07-31T11:35:18.667Z,6.67
2018-07-31T11:37:55.479Z,6.30
2018-07-31T11:40:31.917Z,6.27
2018-07-31T11:43:08.321Z,5.93
2018-07-31T11:45:44.771Z,6.40
2018-07-31T11:48:21.130Z,5.93
2018-07-31T11:50:57.268Z,6.67
2018-07-31T11:53:33.898Z,6.30
2018-07-31T11:56:10.388Z,6.80
2018-07-31T11:58:46.568Z,6.70
2018-07-31T12:01:22.776Z,6.90
2018-07-31T12:04:00.369Z,6.63
2018-07-31T12:06:36.401Z,6.30
2018-07-31T12:09:14.146Z,6.53
2018-07-31T12:11:50.633Z,6.50
2018-07-31T12:14:27.735Z,6.33
2018-07-31T12:17:04.063Z,6.63
2018-07-31T12:19:42.725Z,6.13
2018-07-31T12:22:19.105Z,6.80
2018-07-31T12:24:55.451Z,6.37
2018-07-31T12:27:31.903Z,6.10
2018-07-31T12:30:09.725Z,6.20
2018-07-31T12:32:46.009Z,5.97
2018-07-31T12:35:22.915Z,6.47
2018-07-31T12:37:59.044Z,6.50
2018-07-31T12:40:35.197Z,6.40
2018-07-31T12:43:11.403Z,6.00
2018-07-31T12:45:47.609Z,6.77
2018-07-31T12:48:23.715Z,6.03
2018-07-31T12:51:00.270Z,6.10
2018-07-31T12:53:36.384Z,5.87
2018-07-31T12:56:12.584Z,6.03
2018-07-31T12:58:48.563Z,6.33
2018-07-31T13:01:24.742Z,6.73
2018-07-31T13:04:01.100Z,6.40
2018-07-31T13:06:37.746Z,6.17
2018-07-31T13:09:13.918Z,5.80
2018-07-31T13:11:50.242Z,5.73
2018-07-31T13:14:27.331Z,6.67
2018-07-31T13:17:03.540Z,6.00
2018-07-31T13:19:39.737Z,5.93
2018-07-31T13:22:16.197Z,6.37
2018-07-31T13:24:52.362Z,6.40
2018-07-31T13:27:28.600Z,6.28
2018-07-31T13:30:07.591Z,5.95
2018-07-31T13:32:44.093Z,6.53
2018-07-31T13:35:20.371Z,6.57
2018-07-31T13:37:57.185Z,6.40
2018-07-31T13:40:33.481Z,6.33
2018-07-31T13:43:09.566Z,5.80
2018-07-31T13:45:46.398Z,6.40
2018-07-31T13:48:22.940Z,7.00
2018-07-31T13:50:59.061Z,6.33
2018-07-31T13:53:35.355Z,6.00
2018-07-31T13:56:12.007Z,6.63
2018-07-31T13:58:48.370Z,6.10
2018-07-31T14:01:25.151Z,6.17
2018-07-31T14:04:01.236Z,6.17
2018-07-31T14:06:38.158Z,5.87
2018-07-31T14:09:14.429Z,6.07
2018-07-31T14:11:50.726Z,6.00
2018-07-31T14:14:26.989Z,6.33
2018-07-31T14:17:03.278Z,6.53
2018-07-31T14:19:39.287Z,6.13
2018-07-31T14:22:15.746Z,6.63
2018-07-31T14:24:52.055Z,5.67
2018-07-31T14:27:28.258Z,5.70
2018-07-31T14:30:05.194Z,6.23
2018-07-31T14:32:41.300Z,6.43
2018-07-31T14:35:17.775Z,6.37
2018-07-31T14:37:53.638Z,6.30
2018-07-31T14:40:29.828Z,6.47
2018-07-31T14:43:06.219Z,5.87
2018-07-31T14:45:42.455Z,5.97
2018-07-31T14:48:18.581Z,6.47
2018-07-31T14:50:56.102Z,6.75
2018-07-31T14:53:32.655Z,6.43
2018-07-31T14:56:08.742Z,6.08
2018-07-31T14:58:44.809Z,6.30
2018-07-31T15:01:21.408Z,5.97
2018-07-31T15:03:57.545Z,5.30
2018-07-31T15:06:34.481Z,6.20
2018-07-31T15:09:11.440Z,5.95
2018-07-31T15:11:47.408Z,5.65
2018-07-31T15:14:23.647Z,5.60
2018-07-31T15:17:00.748Z,6.28
2018-07-31T15:19:37.005Z,5.95
2018-07-31T15:22:14.047Z,5.60
2018-07-31T15:24:51.533Z,5.97
2018-07-31T15:27:27.575Z,5.90
2018-07-31T15:30:05.455Z,5.58
2018-07-31T15:32:41.442Z,5.55
2018-07-31T15:35:18.479Z,5.60
2018-07-31T15:37:55.153Z,5.62
2018-07-31T15:40:31.693Z,5.85
2018-07-31T15:43:08.238Z,5.85
2018-07-31T15:45:47.507Z,5.87
2018-07-31T15:48:24.586Z,6.30
2018-07-31T15:51:01.176Z,6.20
2018-07-31T15:53:38.311Z,5.73
2018-07-31T15:56:15.637Z,5.83
2018-07-31T15:58:51.946Z,5.87
2018-07-31T16:01:30.786Z,6.33
2018-07-31T16:04:07.563Z,5.83
2018-07-31T16:06:44.068Z,5.80
2018-07-31T16:09:20.595Z,6.47
2018-07-31T16:11:56.936Z,6.12
2018-07-31T16:14:34.802Z,6.50
2018-07-31T16:17:12.840Z,5.87
2018-07-31T16:19:48.988Z,5.65
2018-07-31T16:22:26.425Z,6.90
2018-07-31T16:25:03.366Z,5.80
2018-07-31T16:27:40.169Z,6.80
2018-07-31T16:30:16.587Z,6.53
2018-07-31T16:32:53.855Z,7.25
2018-07-31T16:35:30.151Z,6.70
2018-07-31T16:38:06.698Z,6.73
2018-07-31T16:40:44.257Z,7.00
2018-07-31T16:43:20.996Z,6.63
2018-07-31T16:45:59.100Z,6.87
2018-07-31T16:48:36.460Z,6.60
2018-07-31T16:51:14.065Z,6.60
2018-07-31T16:53:52.823Z,6.87
2018-07-31T16:56:29.082Z,6.33
2018-07-31T16:59:05.284Z,6.50
2018-07-31T17:01:41.424Z,6.57
2018-07-31T17:04:17.696Z,7.87
2018-07-31T17:06:53.668Z,6.63
2018-07-31T17:09:30.607Z,6.80
2018-07-31T17:12:07.050Z,7.17
2018-07-31T17:14:43.285Z,6.80
2018-07-31T17:17:19.948Z,7.03
2018-07-31T17:19:56.770Z,6.77
2018-07-31T17:22:33.001Z,6.57
2018-07-31T17:25:09.604Z,6.77
2018-07-31T17:27:45.904Z,6.50
2018-07-31T17:30:22.700Z,6.73
2018-07-31T17:32:59.574Z,7.13
2018-07-31T17:35:38.708Z,8.07
2018-07-31T17:38:15.366Z,6.87
2018-07-31T17:40:51.631Z,7.10
2018-07-31T17:43:28.105Z,6.80
2018-07-31T17:46:04.425Z,6.83
2018-07-31T17:48:40.756Z,6.97
2018-07-31T17:51:18.125Z,7.43
2018-07-31T17:53:54.725Z,7.60
2018-07-31T17:56:30.935Z,7.53
2018-07-31T17:59:07.438Z,7.50
2018-07-31T18:01:43.660Z,7.40
2018-07-31T18:04:20.039Z,7.77
2018-07-31T18:06:57.354Z,7.23
2018-07-31T18:09:33.654Z,6.90
2018-07-31T18:12:09.808Z,7.43
2018-07-31T18:14:46.312Z,7.57
2018-07-31T18:17:22.507Z,8.23
2018-07-31T18:19:59.382Z,7.40
2018-07-31T18:22:36.056Z,8.10
2018-07-31T18:25:12.287Z,9.27
2018-07-31T18:27:48.362Z,8.93
2018-07-31T18:30:25.899Z,8.53
2018-07-31T18:33:02.418Z,7.60
2018-07-31T18:35:38.723Z,6.80
2018-07-31T18:38:15.277Z,7.20
2018-07-31T18:40:51.567Z,7.00
2018-07-31T18:43:27.671Z,6.93
2018-07-31T18:46:20.029Z,6.90
2018-07-31T18:48:56.475Z,7.27
2018-07-31T18:51:32.482Z,6.70
2018-07-31T18:54:08.693Z,6.97
2018-07-31T18:56:45.534Z,7.67
2018-07-31T18:59:22.732Z,6.80
2018-07-31T19:01:59.089Z,6.67
2018-07-31T19:04:35.712Z,6.60
2018-07-31T19:07:12.309Z,6.87
2018-07-31T19:09:48.516Z,6.37
2018-07-31T19:12:25.058Z,6.63
2018-07-31T19:15:02.706Z,6.70
2018-07-31T19:17:38.915Z,6.83
2018-07-31T19:20:15.377Z,7.57
2018-07-31T19:22:52.292Z,7.20
2018-07-31T19:25:28.518Z,7.37
2018-07-31T19:28:05.431Z,7.57
2018-07-31T19:30:41.679Z,7.53
2018-07-31T19:33:18.583Z,7.10
2018-07-31T19:35:54.722Z,7.60
2018-07-31T19:38:31.628Z,7.33
2018-07-31T19:41:08.185Z,7.00
2018-07-31T19:43:44.479Z,6.87
2018-07-31T19:46:20.866Z,7.17
2018-07-31T19:48:57.230Z,6.80
2018-07-31T19:51:33.630Z,6.63
2018-07-31T19:54:10.801Z,6.90
2018-07-31T19:56:47.395Z,6.77
2018-07-31T19:59:23.669Z,7.13
2018-07-31T20:02:00.179Z,7.17
2018-07-31T20:04:36.661Z,8.10
2018-07-31T20:07:13.107Z,7.40
2018-07-31T20:09:50.552Z,7.60
2018-07-31T20:12:26.652Z,7.17
2018-07-31T20:15:03.032Z,8.37
2018-07-31T20:17:39.442Z,7.10
2018-07-31T20:20:15.600Z,6.87
2018-07-31T20:22:52.157Z,6.70
2018-07-31T20:25:28.715Z,6.80
2018-07-31T20:28:05.054Z,6.47
2018-07-31T20:30:41.921Z,6.60
2018-07-31T20:33:17.991Z,6.83
2018-07-31T20:35:54.097Z,7.50
2018-07-31T20:38:30.119Z,7.17
2018-07-31T20:41:06.226Z,6.47
2018-07-31T20:43:42.463Z,6.73
2018-07-31T20:46:19.315Z,6.30
2018-07-31T20:48:56.543Z,6.93
2018-07-31T20:51:33.102Z,7.13
2018-07-31T20:54:09.193Z,7.40
2018-07-31T20:56:45.707Z,7.60
2018-07-31T20:59:21.777Z,7.07
2018-07-31T21:01:58.297Z,6.80
2018-07-31T21:04:34.439Z,6.37
2018-07-31T21:07:10.353Z,6.60
2018-07-31T21:09:46.442Z,7.63
2018-07-31T21:12:22.709Z,7.03
2018-07-31T21:14:58.950Z,7.03
2018-07-31T21:17:35.133Z,7.50
2018-07-31T21:20:11.665Z,6.70
2018-07-31T21:22:47.681Z,7.23
2018-07-31T21:25:23.910Z,7.43
2018-07-31T21:28:00.318Z,7.33
2018-07-31T21:30:36.200Z,7.30
2018-07-31T21:33:13.042Z,6.87
2018-07-31T21:35:49.618Z,6.57
2018-07-31T21:38:25.587Z,7.03
2018-07-31T21:41:01.931Z,6.60
2018-07-31T21:43:37.728Z,8.33
2018-07-31T21:46:13.522Z,7.23
2018-07-31T21:48:51.034Z,6.87
2018-07-31T21:51:28.127Z,7.57
2018-07-31T21:54:04.670Z,6.80
2018-07-31T21:56:40.969Z,6.60
2018-07-31T21:59:17.499Z,6.57
2018-07-31T22:01:54.281Z,7.13
2018-07-31T22:04:30.226Z,6.93
2018-07-31T22:07:07.557Z,7.37
2018-07-31T22:09:44.705Z,7.53
2018-07-31T22:12:21.304Z,6.93
2018-07-31T22:14:57.679Z,6.70
2018-07-31T22:17:33.781Z,7.37
2018-07-31T22:20:10.806Z,7.13
2018-07-31T22:22:47.293Z,7.57
2018-07-31T22:25:23.539Z,7.23
2018-07-31T22:27:59.754Z,7.70
2018-07-31T22:30:36.259Z,7.30
2018-07-31T22:33:12.345Z,7.80
2018-07-31T22:35:48.572Z,7.40
2018-07-31T22:38:25.235Z,8.00
2018-07-31T22:41:01.566Z,7.63
2018-07-31T22:43:37.598Z,7.67
2018-07-31T22:46:14.049Z,7.43
2018-07-31T22:48:50.228Z,7.50
2018-07-31T22:51:26.141Z,7.80
2018-07-31T22:54:02.101Z,7.13
2018-07-31T22:56:38.465Z,7.47
2018-07-31T22:59:14.636Z,7.47
2018-07-31T23:01:50.966Z,8.07
2018-07-31T23:04:27.362Z,7.07
2018-07-31T23:07:03.313Z,7.37
2018-07-31T23:09:40.938Z,7.40
2018-07-31T23:12:17.226Z,7.30
2018-07-31T23:14:54.132Z,7.77
2018-07-31T23:17:31.064Z,7.80
2018-07-31T23:20:07.407Z,7.10
2018-07-31T23:22:50.632Z,7.30
2018-07-31T23:25:26.783Z,7.60
2018-07-31T23:28:02.900Z,7.57
2018-07-31T23:30:38.860Z,7.70
2018-07-31T23:33:15.180Z,7.47
2018-07-31T23:35:51.694Z,7.63
2018-07-31T23:38:27.947Z,8.17
2018-07-31T23:41:04.947Z,7.67
2018-07-31T23:43:41.346Z,7.83
2018-07-31T23:46:17.622Z,7.70
2018-07-31T23:48:53.582Z,7.40
2018-07-31T23:51:29.920Z,7.60
2018-07-31T23:54:06.061Z,7.97
2018-07-31T23:56:42.188Z,7.30
2018-07-31T23:59:18.950Z,7.80
